createdAt,value
2019-05-17T00:00:04.584Z,11.62
2019-05-17T00:01:07.088Z,11.52
2019-05-17T00:02:06.814Z,11.53
2019-05-17T00:03:06.804Z,11.75
2019-05-17T00:04:04.552Z,11.65
2019-05-17T00:05:06.747Z,11.62
2019-05-17T00:06:06.786Z,11.50
2019-05-17T00:07:06.499Z,11.46
2019-05-17T00:08:04.535Z,11.46
2019-05-17T00:09:06.882Z,11.44
2019-05-17T00:10:06.572Z,11.49
2019-05-17T00:11:06.606Z,11.49
2019-05-17T00:12:04.513Z,11.47
2019-05-17T00:13:07.010Z,11.49
2019-05-17T00:14:06.351Z,11.35
2019-05-17T00:15:06.918Z,11.38
2019-05-17T00:16:07.011Z,11.59
2019-05-17T00:17:06.476Z,11.35
2019-05-17T00:18:06.715Z,11.31
2019-05-17T00:19:04.477Z,11.27
2019-05-17T00:20:06.310Z,11.31
2019-05-17T00:21:04.468Z,11.24
2019-05-17T00:22:04.467Z,11.35
2019-05-17T00:23:06.767Z,11.56
2019-05-17T00:24:06.492Z,11.38
2019-05-17T00:25:04.449Z,11.28
2019-05-17T00:26:06.952Z,11.52
2019-05-17T00:27:06.569Z,11.87
2019-05-17T00:28:04.434Z,11.54
2019-05-17T00:29:06.650Z,11.28
2019-05-17T00:30:06.480Z,11.27
2019-05-17T00:31:06.483Z,11.35
2019-05-17T00:32:06.424Z,11.29
2019-05-17T00:33:04.411Z,11.31
2019-05-17T00:34:04.399Z,11.09
2019-05-17T00:35:04.396Z,11.29
2019-05-17T00:36:06.556Z,11.16
2019-05-17T00:37:06.819Z,11.02
2019-05-17T00:38:06.476Z,10.94
2019-05-17T00:39:04.375Z,11.02
2019-05-17T00:40:04.375Z,10.89
2019-05-17T00:41:06.642Z,11.10
2019-05-17T00:42:06.751Z,11.39
2019-05-17T00:43:06.423Z,11.24
2019-05-17T00:44:06.195Z,10.88
2019-05-17T00:45:06.586Z,11.32
2019-05-17T00:46:06.501Z,11.11
2019-05-17T00:47:06.347Z,11.03
2019-05-17T00:48:06.307Z,10.81
2019-05-17T00:49:06.342Z,11.24
2019-05-17T00:50:04.334Z,11.32
2019-05-17T00:51:04.312Z,11.20
2019-05-17T00:52:04.311Z,11.25
2019-05-17T00:53:04.320Z,11.02
2019-05-17T00:54:06.633Z,10.84
2019-05-17T00:55:06.606Z,10.83
2019-05-17T00:56:06.469Z,11.03
2019-05-17T00:57:04.284Z,11.39
2019-05-17T00:58:06.446Z,11.13
2019-05-17T00:59:04.265Z,10.81
2019-05-17T01:00:04.270Z,10.70
2019-05-17T01:01:04.265Z,11.17
2019-05-17T01:02:04.254Z,11.02
2019-05-17T01:03:06.786Z,10.84
2019-05-17T01:04:06.666Z,10.81
2019-05-17T01:05:06.189Z,10.91
2019-05-17T01:06:06.156Z,11.20
2019-05-17T01:07:04.226Z,11.19
2019-05-17T01:08:06.904Z,11.17
2019-05-17T01:09:04.295Z,11.02
2019-05-17T01:10:04.209Z,10.96
2019-05-17T01:11:04.207Z,10.88
2019-05-17T01:12:04.203Z,10.94
2019-05-17T01:13:06.540Z,11.09
2019-05-17T01:14:06.664Z,11.28
2019-05-17T01:15:04.188Z,11.17
2019-05-17T01:16:04.177Z,11.36
2019-05-17T01:17:04.174Z,11.54
2019-05-17T01:18:04.187Z,11.44
2019-05-17T01:19:04.161Z,11.27
2019-05-17T01:20:04.158Z,11.27
2019-05-17T01:21:06.255Z,11.28
2019-05-17T01:22:04.148Z,11.29
2019-05-17T01:23:04.184Z,11.49
2019-05-17T01:24:04.136Z,11.06
2019-05-17T01:25:06.240Z,11.01
2019-05-17T01:26:04.126Z,10.84
2019-05-17T01:27:06.388Z,10.77
2019-05-17T01:28:04.114Z,10.94
2019-05-17T01:29:04.110Z,11.09
2019-05-17T01:30:04.109Z,10.94
2019-05-17T01:31:06.482Z,11.29
2019-05-17T01:32:06.514Z,11.21
2019-05-17T01:33:06.411Z,11.07
2019-05-17T01:34:04.084Z,11.10
2019-05-17T01:35:04.079Z,10.98
2019-05-17T01:36:06.595Z,11.03
2019-05-17T01:37:06.334Z,11.27
2019-05-17T01:38:04.060Z,11.25
2019-05-17T01:39:14.333Z,11.39
2019-05-17T01:40:04.040Z,11.47
2019-05-17T01:41:04.046Z,11.47
2019-05-17T01:42:04.044Z,11.57
2019-05-17T01:43:04.026Z,11.38
2019-05-17T01:44:04.024Z,11.21
2019-05-17T01:45:04.015Z,11.28
2019-05-17T01:46:04.010Z,11.43
2019-05-17T01:47:04.012Z,11.56
2019-05-17T01:48:03.994Z,11.43
2019-05-17T01:49:03.999Z,11.31
2019-05-17T01:50:03.993Z,11.44
2019-05-17T01:51:03.980Z,11.46
2019-05-17T01:52:03.978Z,11.34
2019-05-17T01:53:03.989Z,11.34
2019-05-17T01:54:03.965Z,11.25
2019-05-17T01:55:03.982Z,11.17
2019-05-17T01:56:06.195Z,11.16
2019-05-17T01:57:03.947Z,11.27
2019-05-17T01:58:03.942Z,11.27
2019-05-17T01:59:03.928Z,11.20
2019-05-17T02:00:06.274Z,11.27
2019-05-17T02:01:03.921Z,11.28
2019-05-17T02:02:03.920Z,11.32
2019-05-17T02:03:10.644Z,11.25
2019-05-17T02:04:03.912Z,11.20
2019-05-17T02:05:06.314Z,11.02
2019-05-17T02:06:03.893Z,11.29
2019-05-17T02:07:03.878Z,11.28
2019-05-17T02:08:06.422Z,10.73
2019-05-17T02:09:06.209Z,10.92
2019-05-17T02:10:03.869Z,11.06
2019-05-17T02:11:03.866Z,11.20
2019-05-17T02:12:03.854Z,11.27
2019-05-17T02:13:06.355Z,11.13
2019-05-17T02:14:03.835Z,11.25
2019-05-17T02:15:03.852Z,10.88
2019-05-17T02:16:03.826Z,11.02
2019-05-17T02:17:03.818Z,10.96
2019-05-17T02:18:03.813Z,11.06
2019-05-17T02:19:03.803Z,10.65
2019-05-17T02:20:03.803Z,10.40
2019-05-17T02:21:03.807Z,10.40
2019-05-17T02:22:03.785Z,10.62
2019-05-17T02:23:03.784Z,10.98
2019-05-17T02:24:03.776Z,10.94
2019-05-17T02:25:03.770Z,10.76
2019-05-17T02:26:03.761Z,10.39
2019-05-17T02:27:03.751Z,10.18
2019-05-17T02:28:03.754Z,10.14
2019-05-17T02:29:03.749Z,10.15
2019-05-17T02:30:03.733Z,10.32
2019-05-17T02:31:03.760Z,10.22
2019-05-17T02:32:04.124Z,10.26
2019-05-17T02:33:04.307Z,10.42
2019-05-17T02:34:03.714Z,10.40
2019-05-17T02:35:03.717Z,10.39
2019-05-17T02:36:03.704Z,10.18
2019-05-17T02:37:03.698Z,10.03
2019-05-17T02:38:03.694Z,9.78
2019-05-17T02:39:03.834Z,9.67
2019-05-17T02:40:08.083Z,9.67
2019-05-17T02:41:03.791Z,9.73
2019-05-17T02:42:03.666Z,9.71
2019-05-17T02:43:03.757Z,9.63
2019-05-17T02:44:03.688Z,9.53
2019-05-17T02:45:03.675Z,9.56
2019-05-17T02:46:04.209Z,9.70
2019-05-17T02:47:03.649Z,9.79
2019-05-17T02:48:04.246Z,9.88
2019-05-17T02:49:03.640Z,9.75
2019-05-17T02:50:05.550Z,9.67
2019-05-17T02:51:03.900Z,9.64
2019-05-17T02:52:03.634Z,9.66
2019-05-17T02:53:04.702Z,9.67
2019-05-17T02:54:04.328Z,9.58
2019-05-17T02:55:04.224Z,9.57
2019-05-17T02:56:03.764Z,9.56
2019-05-17T02:57:03.576Z,9.61
2019-05-17T02:58:03.812Z,9.61
2019-05-17T02:59:03.912Z,9.68
2019-05-17T03:00:04.640Z,9.58
2019-05-17T03:01:04.098Z,9.31
2019-05-17T03:02:03.826Z,9.32
2019-05-17T03:03:03.951Z,9.45
2019-05-17T03:04:04.051Z,9.45
2019-05-17T03:05:04.269Z,9.64
2019-05-17T03:06:03.674Z,9.78
2019-05-17T03:07:04.121Z,9.64
2019-05-17T03:08:04.466Z,9.42
2019-05-17T03:09:03.712Z,9.45
2019-05-17T03:10:18.142Z,9.49
2019-05-17T03:11:03.754Z,9.57
2019-05-17T03:12:03.939Z,9.58
2019-05-17T03:13:04.202Z,9.96
2019-05-17T03:14:04.195Z,10.04
2019-05-17T03:15:04.250Z,10.19
2019-05-17T03:16:03.967Z,9.82
2019-05-17T03:17:03.673Z,9.94
2019-05-17T03:18:04.068Z,10.04
2019-05-17T03:19:04.339Z,10.22
2019-05-17T03:20:04.298Z,9.70
2019-05-17T03:21:04.179Z,9.64
2019-05-17T03:22:07.349Z,9.64
2019-05-17T03:23:04.196Z,9.52
2019-05-17T03:24:03.586Z,9.53
2019-05-17T03:25:03.778Z,9.56
2019-05-17T03:26:03.940Z,9.57
2019-05-17T03:27:03.454Z,9.70
2019-05-17T03:28:03.492Z,9.78
2019-05-17T03:29:03.644Z,9.61
2019-05-17T03:30:04.539Z,9.60
2019-05-17T03:31:07.560Z,9.68
2019-05-17T03:32:08.801Z,9.49
2019-05-17T03:33:07.466Z,9.58
2019-05-17T03:34:06.398Z,9.40
2019-05-17T03:35:06.738Z,9.31
2019-05-17T03:36:06.113Z,9.48
2019-05-17T03:37:06.117Z,9.60
2019-05-17T03:38:04.013Z,9.79
2019-05-17T03:39:03.394Z,10.03
2019-05-17T03:40:22.914Z,10.15
2019-05-17T03:41:17.039Z,10.00
2019-05-17T03:42:03.290Z,9.71
2019-05-17T03:43:03.306Z,9.68
2019-05-17T03:44:03.554Z,9.42
2019-05-17T03:45:03.369Z,9.21
2019-05-17T03:46:03.284Z,9.06
2019-05-17T03:47:03.255Z,9.10
2019-05-17T03:48:04.846Z,9.06
2019-05-17T03:49:04.098Z,8.97
2019-05-17T03:50:03.491Z,9.10
2019-05-17T03:51:03.237Z,9.25
2019-05-17T03:52:03.238Z,9.12
2019-05-17T03:53:03.220Z,9.31
2019-05-17T03:54:03.204Z,9.25
2019-05-17T03:55:04.191Z,9.25
2019-05-17T03:56:03.306Z,9.05
2019-05-17T03:57:03.225Z,8.96
2019-05-17T03:58:03.803Z,9.23
2019-05-17T03:59:03.924Z,9.28
2019-05-17T04:00:04.036Z,9.06
2019-05-17T04:01:04.214Z,9.24
2019-05-17T04:02:03.635Z,9.25
2019-05-17T04:03:03.437Z,9.31
2019-05-17T04:04:03.305Z,9.40
2019-05-17T04:05:04.389Z,9.53
2019-05-17T04:06:04.070Z,9.71
2019-05-17T04:24:12.671Z,10.12
2019-05-17T04:25:13.424Z,9.91
2019-05-17T04:27:15.133Z,10.21
2019-05-17T04:28:15.091Z,10.19
2019-05-17T04:30:19.070Z,10.17
2019-05-17T04:31:19.053Z,10.32
2019-05-17T04:33:23.626Z,10.37
2019-05-17T04:34:23.026Z,10.40
2019-05-17T04:36:27.020Z,10.60
2019-05-17T04:37:27.003Z,10.51
2019-05-17T04:39:32.668Z,10.84
2019-05-17T04:40:34.019Z,11.20
2019-05-17T04:42:34.964Z,11.99
2019-05-17T04:43:35.010Z,12.23
2019-05-17T04:45:38.932Z,12.92
2019-05-17T04:46:38.921Z,13.24
2019-05-17T04:48:43.834Z,13.73
2019-05-17T04:49:43.928Z,13.98
2019-05-17T04:51:46.903Z,14.42
2019-05-17T04:52:46.889Z,14.56
2019-05-17T04:54:53.743Z,14.87
2019-05-17T04:55:53.923Z,15.05
2019-05-17T04:57:54.950Z,15.17
2019-05-17T04:58:54.966Z,15.35
2019-05-17T05:00:59.432Z,15.59
2019-05-17T05:02:02.727Z,15.70
2019-05-17T05:02:59.433Z,15.45
2019-05-17T05:03:59.438Z,14.94
2019-05-17T05:05:02.875Z,14.42
2019-05-17T05:06:02.642Z,13.62
2019-05-17T05:06:59.456Z,13.77
2019-05-17T05:08:02.664Z,13.99
2019-05-17T05:09:02.343Z,14.86
2019-05-17T05:10:02.656Z,15.81
2019-05-17T05:10:59.480Z,16.60
2019-05-17T05:12:02.627Z,17.30
2019-05-17T05:13:02.779Z,17.64
2019-05-17T05:14:02.462Z,18.28
2019-05-17T05:14:59.506Z,18.73
2019-05-17T05:15:59.508Z,18.97
2019-05-17T05:17:02.379Z,18.74
2019-05-17T05:18:02.208Z,19.02
2019-05-17T05:18:59.525Z,19.05
2019-05-17T05:20:02.526Z,18.54
2019-05-17T05:20:59.546Z,18.94
2019-05-17T05:22:04.067Z,19.36
2019-05-17T05:23:02.361Z,19.58
2019-05-17T05:23:59.566Z,19.87
2019-05-17T05:25:01.964Z,19.83
2019-05-17T05:25:59.584Z,19.94
2019-05-17T05:26:59.591Z,20.15
2019-05-17T05:27:59.601Z,20.43
2019-05-17T05:29:02.154Z,20.58
2019-05-17T05:29:59.616Z,20.74
2019-05-17T05:31:01.988Z,20.74
2019-05-17T05:32:02.166Z,20.09
2019-05-17T05:33:01.871Z,19.94
2019-05-17T05:34:01.785Z,20.53
2019-05-17T05:34:59.664Z,21.21
2019-05-17T05:36:02.035Z,20.96
2019-05-17T05:37:01.945Z,21.32
2019-05-17T05:38:02.013Z,21.79
2019-05-17T05:38:59.704Z,21.92
2019-05-17T05:40:02.059Z,21.91
2019-05-17T05:41:01.894Z,22.31
2019-05-17T05:42:08.063Z,22.32
2019-05-17T05:43:02.140Z,22.78
2019-05-17T05:44:01.935Z,22.72
2019-05-17T05:44:59.763Z,22.80
2019-05-17T05:46:02.329Z,22.77
2019-05-17T05:47:02.002Z,22.99
2019-05-17T05:48:01.795Z,23.20
2019-05-17T05:49:01.869Z,22.84
2019-05-17T05:50:01.840Z,23.17
2019-05-17T05:51:02.928Z,23.07
2019-05-17T05:52:01.787Z,23.60
2019-05-17T05:53:01.943Z,23.39
2019-05-17T05:54:01.635Z,23.53
2019-05-17T05:55:01.497Z,23.27
2019-05-17T05:56:02.909Z,22.53
2019-05-17T05:57:02.364Z,23.62
2019-05-17T05:57:59.919Z,24.85
2019-05-17T05:58:59.935Z,24.82
2019-05-17T06:00:02.214Z,24.27
2019-05-17T06:01:02.301Z,23.82
2019-05-17T06:02:01.812Z,23.71
2019-05-17T06:02:59.997Z,23.58
2019-05-17T06:03:59.994Z,23.79
2019-05-17T06:05:02.037Z,24.23
2019-05-17T06:06:01.782Z,23.92
2019-05-17T06:07:00.029Z,23.75
2019-05-17T06:08:00.126Z,23.82
2019-05-17T06:09:02.572Z,24.63
2019-05-17T06:10:02.176Z,24.12
2019-05-17T06:11:02.145Z,21.85
2019-05-17T06:12:02.240Z,20.25
2019-05-17T06:13:03.063Z,18.57
2019-05-17T06:14:01.620Z,17.20
2019-05-17T06:15:02.565Z,16.98
2019-05-17T06:16:02.410Z,16.41
2019-05-17T06:17:02.760Z,15.82
2019-05-17T06:18:02.712Z,16.00
2019-05-17T06:19:02.177Z,15.60
2019-05-17T06:20:02.375Z,15.78
2019-05-17T06:21:02.710Z,15.30
2019-05-17T06:22:02.539Z,15.36
2019-05-17T06:23:02.406Z,15.28
2019-05-17T06:24:02.441Z,15.38
2019-05-17T06:25:03.458Z,15.35
2019-05-17T06:26:03.291Z,14.87
2019-05-17T06:27:01.899Z,15.01
2019-05-17T06:28:01.610Z,14.91
2019-05-17T06:29:02.591Z,14.60
2019-05-17T06:30:01.540Z,14.83
2019-05-17T06:31:02.630Z,14.95
2019-05-17T06:32:02.386Z,15.11
2019-05-17T06:33:02.381Z,15.06
2019-05-17T06:34:01.966Z,15.01
2019-05-17T06:35:01.872Z,14.74
2019-05-17T06:36:02.592Z,14.84
2019-05-17T06:37:02.239Z,14.87
2019-05-17T06:38:01.917Z,14.83
2019-05-17T06:39:02.185Z,14.84
2019-05-17T06:40:02.487Z,14.78
2019-05-17T06:41:01.617Z,14.72
2019-05-17T06:42:02.584Z,14.54
2019-05-17T06:43:03.985Z,14.75
2019-05-17T06:44:02.737Z,14.94
2019-05-17T06:45:02.180Z,14.90
2019-05-17T06:46:01.794Z,14.84
2019-05-17T06:47:02.441Z,14.90
2019-05-17T06:48:02.348Z,14.80
2019-05-17T06:49:02.818Z,14.81
2019-05-17T06:50:02.844Z,14.78
2019-05-17T06:51:02.439Z,14.75
2019-05-17T06:52:02.222Z,14.94
2019-05-17T06:53:02.916Z,14.91
2019-05-17T06:54:01.745Z,15.05
2019-05-17T06:55:03.488Z,14.80
2019-05-17T06:56:02.381Z,14.75
2019-05-17T06:57:03.053Z,14.60
2019-05-17T06:58:01.754Z,14.71
2019-05-17T06:59:00.162Z,14.74
2019-05-17T07:00:02.421Z,14.62
2019-05-17T07:01:00.178Z,14.65
2019-05-17T07:02:00.166Z,14.74
2019-05-17T07:03:00.685Z,14.81
2019-05-17T07:04:00.423Z,14.93
2019-05-17T07:05:01.529Z,14.80
2019-05-17T07:06:00.157Z,14.81
2019-05-17T07:07:00.197Z,14.68
2019-05-17T07:08:00.412Z,14.68
2019-05-17T07:09:00.981Z,14.75
2019-05-17T07:10:00.691Z,14.81
2019-05-17T07:11:00.149Z,14.46
2019-05-17T07:12:00.150Z,14.39
2019-05-17T07:13:01.873Z,14.47
2019-05-17T07:14:00.161Z,14.47
2019-05-17T07:15:01.755Z,14.64
2019-05-17T07:16:00.139Z,14.61
2019-05-17T07:17:00.139Z,14.67
2019-05-17T07:18:00.140Z,14.78
2019-05-17T07:19:00.138Z,14.80
2019-05-17T07:20:00.137Z,14.84
2019-05-17T07:21:03.352Z,14.68
2019-05-17T07:22:00.128Z,14.56
2019-05-17T07:23:00.572Z,14.47
2019-05-17T07:24:00.172Z,14.43
2019-05-17T07:25:00.133Z,14.49
2019-05-17T07:26:00.137Z,14.60
2019-05-17T07:27:00.120Z,14.71
2019-05-17T07:28:00.585Z,14.67
2019-05-17T07:29:00.119Z,14.62
2019-05-17T07:30:00.107Z,14.71
2019-05-17T07:31:00.111Z,14.81
2019-05-17T07:32:00.383Z,14.80
2019-05-17T07:33:00.627Z,14.60
2019-05-17T07:34:00.104Z,14.67
2019-05-17T07:35:00.244Z,14.71
2019-05-17T07:36:00.108Z,14.80
2019-05-17T07:37:00.107Z,14.60
2019-05-17T07:38:00.097Z,14.65
2019-05-17T07:39:00.758Z,14.75
2019-05-17T07:40:04.735Z,14.68
2019-05-17T07:41:00.090Z,14.72
2019-05-17T07:42:00.107Z,14.71
2019-05-17T07:43:10.130Z,14.83
2019-05-17T07:44:00.508Z,14.78
2019-05-17T07:45:00.654Z,14.93
2019-05-17T07:46:00.572Z,14.87
2019-05-17T07:47:00.218Z,14.83
2019-05-17T07:48:00.217Z,14.74
2019-05-17T07:49:00.530Z,14.84
2019-05-17T07:50:01.014Z,14.83
2019-05-17T07:51:00.081Z,14.90
2019-05-17T07:52:00.726Z,14.88
2019-05-17T07:53:00.620Z,14.91
2019-05-17T07:54:00.066Z,15.01
2019-05-17T07:55:02.458Z,15.08
2019-05-17T07:56:00.056Z,14.91
2019-05-17T07:57:00.326Z,14.94
2019-05-17T07:58:00.306Z,14.80
2019-05-17T07:59:00.194Z,15.06
2019-05-17T08:00:00.170Z,15.05
2019-05-17T08:01:02.084Z,14.91
2019-05-17T08:02:00.048Z,14.90
2019-05-17T08:03:00.119Z,15.06
2019-05-17T08:04:00.684Z,15.08
2019-05-17T08:05:00.673Z,15.05
2019-05-17T08:06:00.214Z,15.01
2019-05-17T08:07:00.038Z,14.94
2019-05-17T08:08:00.193Z,14.91
2019-05-17T08:09:03.897Z,15.02
2019-05-17T08:10:00.345Z,15.12
2019-05-17T08:11:00.513Z,15.11
2019-05-17T08:12:00.024Z,15.19
2019-05-17T08:13:00.026Z,15.26
2019-05-17T08:14:00.027Z,15.27
2019-05-17T08:15:00.126Z,15.24
2019-05-17T08:16:00.064Z,15.06
2019-05-17T08:17:00.021Z,15.21
2019-05-17T08:18:01.890Z,15.31
2019-05-17T08:19:00.428Z,15.26
2019-05-17T08:20:00.605Z,15.38
2019-05-17T08:21:00.008Z,15.27
2019-05-17T08:22:00.000Z,15.35
2019-05-17T08:23:00.017Z,15.36
2019-05-17T08:24:00.289Z,15.38
2019-05-17T08:25:00.286Z,15.31
2019-05-17T08:26:00.675Z,15.24
2019-05-17T08:27:00.069Z,15.17
2019-05-17T08:27:59.998Z,15.39
2019-05-17T08:29:00.756Z,15.33
2019-05-17T08:30:00.041Z,15.43
2019-05-17T08:31:01.086Z,15.56
2019-05-17T08:32:00.427Z,15.49
2019-05-17T08:33:00.895Z,15.43
2019-05-17T08:34:00.170Z,15.46
2019-05-17T08:35:00.473Z,15.64
2019-05-17T08:35:59.980Z,15.56
2019-05-17T08:37:01.061Z,15.61
2019-05-17T08:38:00.596Z,15.57
2019-05-17T08:38:59.981Z,15.36
2019-05-17T08:40:00.273Z,15.42
2019-05-17T08:41:00.724Z,15.42
2019-05-17T08:42:01.362Z,15.52
2019-05-17T08:43:00.182Z,15.68
2019-05-17T08:44:00.697Z,15.81
2019-05-17T08:45:00.365Z,15.81
2019-05-17T08:46:01.906Z,15.81
2019-05-17T08:46:59.968Z,15.81
2019-05-17T08:48:00.438Z,15.70
2019-05-17T08:49:00.368Z,15.79
2019-05-17T08:50:00.579Z,15.75
2019-05-17T08:51:00.263Z,15.81
2019-05-17T08:51:59.961Z,15.79
2019-05-17T08:53:00.062Z,15.85
2019-05-17T08:54:00.221Z,15.89
2019-05-17T08:55:00.531Z,15.86
2019-05-17T08:56:00.943Z,15.94
2019-05-17T08:57:00.647Z,15.94
2019-05-17T08:58:01.018Z,16.01
2019-05-17T08:59:00.797Z,15.93
2019-05-17T09:00:00.947Z,15.88
2019-05-17T09:01:00.456Z,15.94
2019-05-17T09:02:00.167Z,15.93
2019-05-17T09:03:00.127Z,16.03
2019-05-17T09:04:00.051Z,15.93
2019-05-17T09:05:00.445Z,15.96
2019-05-17T09:06:02.146Z,15.97
2019-05-17T09:07:03.010Z,16.03
2019-05-17T09:08:00.142Z,16.14
2019-05-17T09:09:00.767Z,16.14
2019-05-17T09:10:01.699Z,16.30
2019-05-17T09:11:00.560Z,16.25
2019-05-17T09:11:59.930Z,16.35
2019-05-17T09:12:59.934Z,16.35
2019-05-17T09:14:02.019Z,16.33
2019-05-17T09:15:00.454Z,16.40
2019-05-17T09:16:00.477Z,16.38
2019-05-17T09:17:00.453Z,16.31
2019-05-17T09:18:00.377Z,16.41
2019-05-17T09:19:00.474Z,16.50
2019-05-17T09:20:00.752Z,16.30
2019-05-17T09:21:00.522Z,16.26
2019-05-17T09:21:59.959Z,16.23
2019-05-17T09:23:00.157Z,16.31
2019-05-17T09:23:59.922Z,16.44
2019-05-17T09:24:59.913Z,16.53
2019-05-17T09:25:59.920Z,16.56
2019-05-17T09:26:59.992Z,16.53
2019-05-17T09:28:00.692Z,16.52
2019-05-17T09:29:01.199Z,16.49
2019-05-17T09:30:00.198Z,16.45
2019-05-17T09:31:00.211Z,16.56
2019-05-17T09:32:00.096Z,16.55
2019-05-17T09:33:00.384Z,16.38
2019-05-17T09:34:00.408Z,16.44
2019-05-17T09:35:00.366Z,16.53
2019-05-17T09:36:00.697Z,16.50
2019-05-17T09:37:00.317Z,16.49
2019-05-17T09:38:00.591Z,16.62
2019-05-17T09:39:00.229Z,16.55
2019-05-17T09:40:00.017Z,16.53
2019-05-17T09:41:00.197Z,16.70
2019-05-17T09:41:59.893Z,16.83
2019-05-17T09:43:00.509Z,16.67
2019-05-17T09:44:11.840Z,16.68
2019-05-17T09:45:00.317Z,16.63
2019-05-17T09:46:01.668Z,16.70
2019-05-17T09:46:59.892Z,16.70
2019-05-17T09:48:00.731Z,16.71
2019-05-17T09:49:01.076Z,16.96
2019-05-17T09:50:00.521Z,16.90
2019-05-17T09:51:00.224Z,16.93
2019-05-17T09:52:00.233Z,16.74
2019-05-17T09:53:00.083Z,16.88
2019-05-17T09:54:00.191Z,16.93
2019-05-17T09:55:00.683Z,17.00
2019-05-17T09:56:00.479Z,17.04
2019-05-17T09:57:00.460Z,16.93
2019-05-17T09:58:00.348Z,16.90
2019-05-17T09:59:00.470Z,17.07
2019-05-17T10:00:00.307Z,17.10
2019-05-17T10:01:01.324Z,17.08
2019-05-17T10:02:00.178Z,17.06
2019-05-17T10:03:00.150Z,17.14
2019-05-17T10:04:00.063Z,17.04
2019-05-17T10:05:00.023Z,16.99
2019-05-17T10:06:00.114Z,17.00
2019-05-17T10:06:59.879Z,17.14
2019-05-17T10:08:00.121Z,17.23
2019-05-17T10:09:00.231Z,17.29
2019-05-17T10:09:59.954Z,17.17
2019-05-17T10:11:08.347Z,17.36
2019-05-17T10:12:00.078Z,17.26
2019-05-17T10:13:00.313Z,17.13
2019-05-17T10:14:01.325Z,17.18
2019-05-17T10:15:00.503Z,17.22
2019-05-17T10:16:00.451Z,17.32
2019-05-17T10:17:00.403Z,17.32
2019-05-17T10:18:00.596Z,17.11
2019-05-17T10:19:00.153Z,17.14
2019-05-17T10:20:00.081Z,17.15
2019-05-17T10:21:00.033Z,17.22
2019-05-17T10:21:59.878Z,17.35
2019-05-17T10:22:59.863Z,17.41
2019-05-17T10:24:00.238Z,17.50
2019-05-17T10:25:00.345Z,17.46
2019-05-17T10:25:59.875Z,17.46
2019-05-17T10:26:59.857Z,17.48
2019-05-17T10:28:00.610Z,17.55
2019-05-17T10:28:59.863Z,17.48
2019-05-17T10:29:59.905Z,17.43
2019-05-17T10:31:02.418Z,17.57
2019-05-17T10:31:59.979Z,17.51
2019-05-17T10:33:00.165Z,17.64
2019-05-17T10:34:01.104Z,17.64
2019-05-17T10:35:00.290Z,17.63
2019-05-17T10:36:00.473Z,17.50
2019-05-17T10:36:59.853Z,17.53
2019-05-17T10:38:00.116Z,17.46
2019-05-17T10:38:59.881Z,17.59
2019-05-17T10:39:59.871Z,17.63
2019-05-17T10:40:59.856Z,17.59
2019-05-17T10:41:59.862Z,17.74
2019-05-17T10:43:00.751Z,17.66
2019-05-17T10:43:59.851Z,17.46
2019-05-17T10:45:00.079Z,17.41
2019-05-17T10:45:59.989Z,17.64
2019-05-17T10:46:59.855Z,17.69
2019-05-17T10:48:00.761Z,17.78
2019-05-17T10:48:59.856Z,17.92
2019-05-17T10:49:59.851Z,18.04
2019-05-17T10:51:00.369Z,17.95
2019-05-17T10:52:00.038Z,17.81
2019-05-17T10:53:00.557Z,17.78
2019-05-17T10:54:00.065Z,17.62
2019-05-17T10:55:00.080Z,17.74
2019-05-17T10:56:00.751Z,17.94
2019-05-17T10:56:59.915Z,17.91
2019-05-17T10:58:00.477Z,17.99
2019-05-17T10:59:00.211Z,18.12
2019-05-17T10:59:59.868Z,18.17
2019-05-17T11:01:00.812Z,18.06
2019-05-17T11:01:59.855Z,18.00
2019-05-17T11:03:00.470Z,17.91
2019-05-17T11:03:59.891Z,17.84
2019-05-17T11:05:00.770Z,17.95
2019-05-17T11:06:00.018Z,18.10
2019-05-17T11:06:59.850Z,18.17
2019-05-17T11:08:00.031Z,18.22
2019-05-17T11:08:59.849Z,18.22
2019-05-17T11:10:00.509Z,18.25
2019-05-17T11:10:59.848Z,18.40
2019-05-17T11:11:59.865Z,18.31
2019-05-17T11:12:59.860Z,18.02
2019-05-17T11:13:59.853Z,18.19
2019-05-17T11:15:10.514Z,18.25
2019-05-17T11:15:59.855Z,18.17
2019-05-17T11:18:39.267Z,18.42
2019-05-17T11:19:39.195Z,18.47
2019-05-17T11:20:39.232Z,18.54
2019-05-17T11:21:39.237Z,18.49
2019-05-17T11:22:39.183Z,18.36
2019-05-17T11:23:39.183Z,18.37
2019-05-17T11:24:39.211Z,18.46
2019-05-17T11:25:45.059Z,18.46
2019-05-17T11:26:39.229Z,18.47
2019-05-17T11:27:39.203Z,18.52
2019-05-17T11:28:39.227Z,18.43
2019-05-17T11:29:39.200Z,18.46
2019-05-17T11:30:39.213Z,18.54
2019-05-17T11:31:39.218Z,18.73
2019-05-17T11:32:39.195Z,18.59
2019-05-17T11:33:39.257Z,18.65
2019-05-17T11:34:48.929Z,18.58
2019-05-17T11:36:43.718Z,18.59
2019-05-17T11:37:43.701Z,18.58
2019-05-17T11:38:43.714Z,18.59
2019-05-17T11:39:43.679Z,18.65
2019-05-17T11:40:43.691Z,18.61
2019-05-17T11:41:43.695Z,18.67
2019-05-17T11:42:43.680Z,18.57
2019-05-17T11:43:43.714Z,18.67
2019-05-17T11:44:43.722Z,18.87
2019-05-17T11:45:43.731Z,18.86
2019-05-17T11:46:43.668Z,18.92
2019-05-17T11:47:43.680Z,18.91
2019-05-17T11:48:43.673Z,18.86
2019-05-17T11:49:43.674Z,18.82
2019-05-17T11:50:43.725Z,18.76
2019-05-17T11:51:43.694Z,18.73
2019-05-17T11:52:43.685Z,19.02
2019-05-17T11:53:43.706Z,18.99
2019-05-17T11:54:43.690Z,18.98
2019-05-17T11:55:43.675Z,18.90
2019-05-17T11:56:52.491Z,18.73
2019-05-17T11:58:49.259Z,18.95
2019-05-17T11:59:49.247Z,19.11
2019-05-17T12:00:57.884Z,19.14
2019-05-17T12:04:34.181Z,19.06
2019-05-17T12:05:34.127Z,19.21
2019-05-17T12:06:34.125Z,19.23
2019-05-17T12:07:34.110Z,19.40
2019-05-17T12:08:34.113Z,19.32
2019-05-17T12:09:37.430Z,19.35
2019-05-17T12:10:34.141Z,19.48
2019-05-17T12:11:34.095Z,19.39
2019-05-17T12:12:34.164Z,19.33
2019-05-17T12:13:34.115Z,19.48
2019-05-17T12:14:34.103Z,19.36
2019-05-17T12:15:44.240Z,19.42
2019-05-17T12:16:34.150Z,19.50
2019-05-17T12:17:34.145Z,19.48
2019-05-17T12:18:34.152Z,19.53
2019-05-17T12:19:37.118Z,19.48
2019-05-17T12:20:34.180Z,19.54
2019-05-17T12:21:34.097Z,19.58
2019-05-17T12:22:34.165Z,19.65
2019-05-17T12:23:34.123Z,19.60
2019-05-17T12:24:34.126Z,19.58
2019-05-17T12:25:34.118Z,19.57
2019-05-17T12:26:34.182Z,19.39
2019-05-17T12:27:34.136Z,19.47
2019-05-17T12:28:34.111Z,19.50
2019-05-17T12:29:34.134Z,19.51
2019-05-17T12:30:34.134Z,19.57
2019-05-17T12:31:34.110Z,19.60
2019-05-17T12:32:34.147Z,19.51
2019-05-17T12:33:34.135Z,19.57
2019-05-17T12:34:34.154Z,19.54
2019-05-17T12:35:34.189Z,19.69
2019-05-17T12:36:34.212Z,19.72
2019-05-17T12:37:34.129Z,19.76
2019-05-17T12:38:34.116Z,19.76
2019-05-17T12:39:34.179Z,19.68
2019-05-17T12:40:34.126Z,19.72
2019-05-17T12:41:34.142Z,19.72
2019-05-17T12:42:34.125Z,19.55
2019-05-17T12:43:34.216Z,19.51
2019-05-17T12:44:37.122Z,19.57
2019-05-17T12:45:34.145Z,19.55
2019-05-17T12:46:34.169Z,19.63
2019-05-17T12:47:34.185Z,19.57
2019-05-17T12:48:34.165Z,19.73
2019-05-17T12:49:34.164Z,19.69
2019-05-17T12:50:34.171Z,19.72
2019-05-17T12:51:34.193Z,19.72
2019-05-17T12:52:34.171Z,19.54
2019-05-17T12:53:34.178Z,19.55
2019-05-17T12:54:34.164Z,19.63
2019-05-17T12:55:34.165Z,19.72
2019-05-17T12:56:34.164Z,19.76
2019-05-17T12:57:34.155Z,19.90
2019-05-17T12:58:34.145Z,19.83
2019-05-17T12:59:34.154Z,19.98
2019-05-17T13:00:34.161Z,19.87
2019-05-17T13:01:34.156Z,19.94
2019-05-17T13:02:34.151Z,19.91
2019-05-17T13:03:34.174Z,19.86
2019-05-17T13:04:34.180Z,19.76
2019-05-17T13:05:34.305Z,19.69
2019-05-17T13:06:34.174Z,19.70
2019-05-17T13:07:34.219Z,19.86
2019-05-17T13:08:34.193Z,19.86
2019-05-17T13:09:43.034Z,20.05
2019-05-17T13:10:34.225Z,20.06
2019-05-17T13:11:34.243Z,20.27
2019-05-17T13:12:34.379Z,20.24
2019-05-17T13:13:34.202Z,20.23
2019-05-17T13:14:34.211Z,20.06
2019-05-17T13:15:34.192Z,20.05
2019-05-17T13:16:34.220Z,19.95
2019-05-17T13:17:34.248Z,20.09
2019-05-17T13:18:34.347Z,20.16
2019-05-17T13:19:34.234Z,20.28
2019-05-17T13:20:34.210Z,20.39
2019-05-17T13:21:34.250Z,20.35
2019-05-17T13:22:34.204Z,20.61
2019-05-17T13:23:34.205Z,20.51
2019-05-17T13:24:34.238Z,20.62
2019-05-17T13:25:34.300Z,20.54
2019-05-17T13:26:34.220Z,20.58
2019-05-17T13:27:42.911Z,20.59
2019-05-17T13:30:02.596Z,20.79
2019-05-17T13:31:02.480Z,20.71
2019-05-17T13:32:02.521Z,20.76
2019-05-17T13:33:02.494Z,20.81